Time;durP1;ratioP1;P1;durP2;ratioP2;P2;SDS_P1;SDS_P2;PMS_P1;PMS_P2;Temp;Humidity;BMP_temperature;BMP_pressure;BME280_temperature;BME280_humidity;BME280_pressure;Samples;Min_cycle;Max_cycle;Signal;HPM_P1;HPM_P2
2023/01/16 00:01:58;;;;;;;;;;;6.30;99.90;;;;;;5061773;28;20289;-60
2023/01/16 00:04:23;;;;;;;;;;;6.20;99.90;;;;;;5071326;28;20395;-62
2023/01/16 00:06:48;;;;;;;;;;;6.20;99.90;;;;;;5067673;28;19948;-61
2023/01/16 00:09:14;;;;;;;;;;;6.20;99.90;;;;;;5066382;28;19920;-61
2023/01/16 00:11:39;;;;;;;;;;;6.10;99.90;;;;;;5068477;28;19957;-62
2023/01/16 00:14:05;;;;;;;;;;;6.10;99.90;;;;;;5064165;28;19913;-62
2023/01/16 00:16:31;;;;;;;;;;;6.10;99.90;;;;;;5066893;28;19913;-62
2023/01/16 00:18:56;;;;;;;;;;;6.10;99.90;;;;;;5068341;28;19916;-62
2023/01/16 00:21:25;;;;;;;;;;;6.10;99.90;;;;;;5067439;28;19919;-61
2023/01/16 00:23:54;;;;;;;;;;;6.10;99.90;;;;;;5068678;28;19999;-61
2023/01/16 00:26:20;;;;;;;;;;;6.20;99.90;;;;;;5067401;28;20402;-58
2023/01/16 00:28:45;;;;;;;;;;;6.20;99.90;;;;;;5067063;28;19919;-62
2023/01/16 00:31:11;;;;;;;;;;;6.20;99.90;;;;;;5065378;28;19917;-62
2023/01/16 00:33:37;;;;;;;;;;;6.20;99.90;;;;;;5063675;28;20427;-62
2023/01/16 00:36:02;;;;;;;;;;;6.20;99.90;;;;;;5069167;28;19958;-61
2023/01/16 00:38:28;;;;;;;;;;;6.20;99.90;;;;;;5068410;28;19916;-62
2023/01/16 00:40:53;;;;;;;;;;;6.30;99.90;;;;;;5062945;28;19917;-62
2023/01/16 00:43:19;;;;;;;;;;;6.30;99.90;;;;;;5066381;28;20661;-61
2023/01/16 00:45:45;;;;;;;;;;;6.30;99.90;;;;;;5068706;28;19912;-62
2023/01/16 00:48:10;;;;;;;;;;;6.30;99.90;;;;;;5071178;28;19955;-62
2023/01/16 00:50:35;;;;;;;;;;;6.40;99.90;;;;;;5068389;28;20356;-61
2023/01/16 00:53:01;;;;;;;;;;;6.40;99.90;;;;;;5066498;28;19948;-62
2023/01/16 00:55:26;;;;;;;;;;;6.40;99.90;;;;;;5065934;28;19913;-62
2023/01/16 00:57:52;;;;;;;;;;;6.40;99.90;;;;;;5070985;28;19912;-62
2023/01/16 01:00:20;;;;;;;;;;;6.40;99.90;;;;;;5057263;28;20451;-62
2023/01/16 01:02:47;;;;;;;;;;;6.40;99.90;;;;;;5071323;28;19924;-62
2023/01/16 01:05:13;;;;;;;;;;;6.40;99.90;;;;;;5062402;28;19925;-62
2023/01/16 01:07:39;;;;;;;;;;;6.40;99.90;;;;;;5068270;28;20006;-62
2023/01/16 01:10:04;;;;;;;;;;;6.30;99.90;;;;;;5068714;28;19917;-62
2023/01/16 01:12:30;;;;;;;;;;;6.30;99.90;;;;;;5068652;28;19912;-60
2023/01/16 01:14:55;;;;;;;;;;;6.20;99.90;;;;;;5069398;28;19912;-61
2023/01/16 01:17:21;;;;;;;;;;;6.10;99.90;;;;;;5072674;28;19913;-62
2023/01/16 01:19:46;;;;;;;;;;;6.10;99.90;;;;;;5072480;28;19920;-62
2023/01/16 01:22:12;;;;;;;;;;;6.10;99.90;;;;;;5067109;28;19916;-62
2023/01/16 01:24:37;;;;;;;;;;;6.10;99.90;;;;;;5065578;28;20286;-62
2023/01/16 01:27:03;;;;;;;;;;;6.00;99.90;;;;;;5064381;28;19955;-62
2023/01/16 01:29:28;;;;;;;;;;;6.00;99.90;;;;;;5067962;28;19913;-62
2023/01/16 01:31:54;;;;;;;;;;;6.00;99.90;;;;;;5068951;28;20401;-62
2023/01/16 01:34:19;;;;;;;;;;;5.90;99.90;;;;;;5066116;28;19913;-62
2023/01/16 01:36:45;;;;;;;;;;;5.90;99.90;;;;;;5068060;28;19913;-62
2023/01/16 01:39:10;;;;;;;;;;;6.00;99.90;;;;;;5067752;28;19917;-60
2023/01/16 01:41:35;;;;;;;;;;;6.00;99.90;;;;;;5070825;28;19924;-60
2023/01/16 01:44:01;;;;;;;;;;;6.00;99.90;;;;;;5061717;28;19939;-61
2023/01/16 01:46:46;;;;;;;;;;;6.10;99.90;;;;;;5063645;28;19920;-62
2023/01/16 01:49:25;;;;;;;;;;;6.00;99.90;;;;;;5069670;28;20365;-61
2023/01/16 01:51:52;;;;;;;;;;;6.10;99.90;;;;;;5066851;28;19932;-62
2023/01/16 01:54:21;;;;;;;;;;;6.00;99.90;;;;;;5070247;28;19948;-61
2023/01/16 01:56:52;;;;;;;;;;;6.00;99.90;;;;;;5070258;28;19913;-62
2023/01/16 01:59:23;;;;;;;;;;;6.00;99.90;;;;;;5069241;28;20050;-62
2023/01/16 02:01:49;;;;;;;;;;;6.00;99.90;;;;;;5068615;28;19995;-62
2023/01/16 02:04:19;;;;;;;;;;;6.00;99.90;;;;;;5068973;28;19991;-62
2023/01/16 02:06:47;;;;;;;;;;;6.00;99.90;;;;;;5067125;28;19916;-61
2023/01/16 02:09:13;;;;;;;;;;;5.90;99.90;;;;;;5067707;28;20378;-63
2023/01/16 02:11:45;;;;;;;;;;;5.90;99.90;;;;;;5073485;28;20313;-62
2023/01/16 02:14:13;;;;;;;;;;;5.90;99.90;;;;;;5067752;28;19916;-62
2023/01/16 02:19:25;;;;;;;;;;;5.90;99.90;;;;;;5072086;28;19966;-61
2023/01/16 02:21:56;;;;;;;;;;;5.90;99.90;;;;;;5069151;28;20414;-61
2023/01/16 02:24:40;;;;;;;;;;;5.90;99.90;;;;;;5068379;28;20321;-62
2023/01/16 02:27:06;;;;;;;;;;;5.80;99.90;;;;;;5062597;28;19924;-62
2023/01/16 02:29:47;;;;;;;;;;;5.80;99.90;;;;;;5071022;28;19913;-62
2023/01/16 02:32:27;;;;;;;;;;;5.80;99.90;;;;;;5068560;28;20432;-62
2023/01/16 02:35:02;;;;;;;;;;;5.80;99.90;;;;;;5067327;28;19928;-62
2023/01/16 02:37:33;;;;;;;;;;;5.80;99.90;;;;;;5069120;28;19917;-62
2023/01/16 02:40:04;;;;;;;;;;;5.90;99.90;;;;;;5068770;28;19913;-62
2023/01/16 02:42:44;;;;;;;;;;;5.90;99.90;;;;;;5070395;28;20467;-62
2023/01/16 02:45:24;;;;;;;;;;;5.90;99.90;;;;;;5066739;28;19913;-62
2023/01/16 02:47:49;;;;;;;;;;;5.90;99.90;;;;;;5063972;28;19916;-60
2023/01/16 02:50:20;;;;;;;;;;;5.90;99.90;;;;;;5063157;28;19919;-61
2023/01/16 02:52:46;;;;;;;;;;;5.80;99.90;;;;;;5061908;28;19913;-62
2023/01/16 02:55:31;;;;;;;;;;;5.90;99.90;;;;;;5069708;28;19935;-61
2023/01/16 02:58:01;;;;;;;;;;;5.80;99.90;;;;;;5066614;28;19920;-62
2023/01/16 03:00:27;;;;;;;;;;;5.90;99.90;;;;;;5068343;28;19921;-61
2023/01/16 03:02:53;;;;;;;;;;;5.90;99.90;;;;;;5067986;28;19916;-62
2023/01/16 03:05:19;;;;;;;;;;;5.80;99.90;;;;;;5068481;28;19918;-62
2023/01/16 03:07:51;;;;;;;;;;;5.90;99.90;;;;;;5067691;28;20440;-62
2023/01/16 03:10:35;;;;;;;;;;;5.80;99.90;;;;;;5067601;28;19913;-62
2023/01/16 03:13:19;;;;;;;;;;;5.80;99.90;;;;;;5067608;28;19923;-62
2023/01/16 03:15:44;;;;;;;;;;;5.60;99.90;;;;;;5066334;28;20306;-62
2023/01/16 03:18:32;;;;;;;;;;;5.60;99.90;;;;;;5067520;28;19916;-61
2023/01/16 03:21:07;;;;;;;;;;;5.50;99.90;;;;;;5068537;28;19935;-62
2023/01/16 03:23:35;;;;;;;;;;;5.50;99.90;;;;;;5063797;28;20736;-61
2023/01/16 03:26:04;;;;;;;;;;;5.50;99.90;;;;;;5067625;28;19912;-62
2023/01/16 03:28:32;;;;;;;;;;;5.40;99.90;;;;;;5068112;28;19943;-62
2023/01/16 03:31:05;;;;;;;;;;;5.30;99.90;;;;;;5068434;28;20418;-62
2023/01/16 03:33:52;;;;;;;;;;;5.30;99.90;;;;;;5089126;23;19911;-61
2023/01/16 03:36:29;;;;;;;;;;;5.30;99.90;;;;;;5062765;28;19939;-62
2023/01/16 03:38:55;;;;;;;;;;;5.30;99.90;;;;;;5061901;28;19931;-63
2023/01/16 03:41:22;;;;;;;;;;;5.20;99.90;;;;;;5059446;28;19917;-62
2023/01/16 03:43:51;;;;;;;;;;;5.20;99.90;;;;;;5059216;28;20289;-62
2023/01/16 03:46:23;;;;;;;;;;;5.20;99.90;;;;;;5047118;28;20008;-61
2023/01/16 03:48:55;;;;;;;;;;;5.20;99.90;;;;;;5048272;28;19912;-61
2023/01/16 03:51:22;;;;;;;;;;;5.30;99.90;;;;;;5040529;28;19913;-61
2023/01/16 03:53:53;;;;;;;;;;;5.40;99.90;;;;;;5048981;28;20440;-63
2023/01/16 03:56:38;;;;;;;;;;;5.40;99.90;;;;;;5045418;28;20294;-63
2023/01/16 03:59:04;;;;;;;;;;;5.50;99.90;;;;;;5050140;28;19967;-61
2023/01/16 04:01:50;;;;;;;;;;;5.50;99.90;;;;;;5045218;28;19952;-63
2023/01/16 04:04:20;;;;;;;;;;;5.50;99.90;;;;;;5046427;28;20536;-61
2023/01/16 04:06:51;;;;;;;;;;;5.50;99.90;;;;;;5044995;28;19959;-62
2023/01/16 04:09:37;;;;;;;;;;;5.50;99.90;;;;;;5048913;28;19928;-63
2023/01/16 04:12:03;;;;;;;;;;;5.40;99.90;;;;;;5045854;28;20007;-61
2023/01/16 04:14:30;;;;;;;;;;;5.50;99.90;;;;;;5048282;28;19965;-63
2023/01/16 04:16:56;;;;;;;;;;;5.50;99.90;;;;;;5047673;28;19917;-63
2023/01/16 04:19:22;;;;;;;;;;;5.50;99.90;;;;;;5048885;28;19940;-63
2023/01/16 04:21:47;;;;;;;;;;;5.50;99.90;;;;;;5049321;28;20011;-63
2023/01/16 04:24:13;;;;;;;;;;;5.50;99.90;;;;;;5053339;28;19917;-63
2023/01/16 04:26:39;;;;;;;;;;;5.50;99.90;;;;;;5051035;28;19917;-63
2023/01/16 04:29:04;;;;;;;;;;;5.50;99.90;;;;;;5052171;28;19924;-63
2023/01/16 04:31:30;;;;;;;;;;;5.50;99.90;;;;;;5051608;28;19935;-62
2023/01/16 04:33:55;;;;;;;;;;;5.50;99.90;;;;;;5052120;28;19921;-63
2023/01/16 04:36:21;;;;;;;;;;;5.40;99.90;;;;;;5051672;28;19944;-63
2023/01/16 04:38:47;;;;;;;;;;;5.50;99.90;;;;;;5046101;28;19913;-62
2023/01/16 04:41:12;;;;;;;;;;;5.50;99.90;;;;;;5048909;28;19913;-63
2023/01/16 04:43:38;;;;;;;;;;;5.50;99.90;;;;;;5050313;28;19931;-63
2023/01/16 04:46:03;;;;;;;;;;;5.60;99.90;;;;;;5049633;28;19916;-63
2023/01/16 04:48:29;;;;;;;;;;;5.50;99.90;;;;;;5047986;28;19913;-63
2023/01/16 04:50:54;;;;;;;;;;;5.60;99.90;;;;;;5050534;28;20008;-63
2023/01/16 04:53:20;;;;;;;;;;;5.60;99.90;;;;;;5050076;28;19913;-62
2023/01/16 04:55:45;;;;;;;;;;;5.60;99.90;;;;;;5049227;28;19921;-63
2023/01/16 04:58:10;;;;;;;;;;;5.60;99.90;;;;;;5049615;28;19931;-62
2023/01/16 05:00:36;;;;;;;;;;;5.70;99.90;;;;;;5050952;28;20425;-62
2023/01/16 05:03:01;;;;;;;;;;;5.70;99.90;;;;;;5049512;28;20272;-63
2023/01/16 05:05:27;;;;;;;;;;;5.70;99.90;;;;;;5048431;28;19917;-63
2023/01/16 05:10:36;;;;;;;;;;;5.80;99.90;;;;;;5045120;28;19927;-61
2023/01/16 05:13:02;;;;;;;;;;;5.80;99.90;;;;;;5049208;28;19912;-62
2023/01/16 05:15:27;;;;;;;;;;;5.80;99.90;;;;;;5049779;28;19925;-61
2023/01/16 05:17:54;;;;;;;;;;;5.90;99.90;;;;;;5045778;28;19952;-56
2023/01/16 05:20:19;;;;;;;;;;;5.90;99.90;;;;;;5051986;28;19916;-63
2023/01/16 05:22:45;;;;;;;;;;;5.90;99.90;;;;;;5045803;28;20770;-62
2023/01/16 05:25:10;;;;;;;;;;;6.00;99.90;;;;;;5049453;28;19924;-62
2023/01/16 05:27:36;;;;;;;;;;;6.00;99.90;;;;;;5045867;28;19921;-62
2023/01/16 05:30:01;;;;;;;;;;;6.00;99.90;;;;;;5052188;28;19913;-62
2023/01/16 05:32:26;;;;;;;;;;;6.00;99.90;;;;;;5047025;28;20320;-62
2023/01/16 05:34:52;;;;;;;;;;;6.00;99.90;;;;;;5050156;28;19924;-61
2023/01/16 05:37:17;;;;;;;;;;;6.00;99.90;;;;;;5049004;28;19917;-62
2023/01/16 05:39:43;;;;;;;;;;;5.90;99.90;;;;;;5045953;28;19920;-62
2023/01/16 05:42:20;;;;;;;;;;;5.90;99.90;;;;;;5049282;28;19995;-62
2023/01/16 05:44:49;;;;;;;;;;;5.90;99.90;;;;;;5046396;28;19923;-63
2023/01/16 05:47:15;;;;;;;;;;;5.90;99.90;;;;;;5052100;28;20062;-63
2023/01/16 05:49:40;;;;;;;;;;;6.00;99.90;;;;;;5047900;28;20011;-62
2023/01/16 05:52:06;;;;;;;;;;;5.90;99.90;;;;;;5060208;28;19925;-63
2023/01/16 05:54:31;;;;;;;;;;;6.00;99.90;;;;;;5052214;28;19978;-60
2023/01/16 05:56:57;;;;;;;;;;;6.00;99.90;;;;;;5051419;28;19935;-62
2023/01/16 05:59:22;;;;;;;;;;;6.00;99.90;;;;;;5049266;28;19924;-61
2023/01/16 06:01:48;;;;;;;;;;;6.00;99.90;;;;;;5046241;28;20030;-60
2023/01/16 06:04:13;;;;;;;;;;;6.00;99.90;;;;;;5046215;28;19966;-62
2023/01/16 06:06:38;;;;;;;;;;;6.00;99.90;;;;;;5051159;28;19920;-62
2023/01/16 06:09:04;;;;;;;;;;;6.00;99.90;;;;;;5049354;28;20003;-62
2023/01/16 06:11:29;;;;;;;;;;;6.10;99.90;;;;;;5050009;28;19913;-62
2023/01/16 06:13:55;;;;;;;;;;;6.10;99.90;;;;;;5046153;28;20324;-61
2023/01/16 06:16:22;;;;;;;;;;;6.10;99.90;;;;;;5046076;28;19913;-62
2023/01/16 06:18:48;;;;;;;;;;;6.10;99.90;;;;;;5043872;28;19913;-62
2023/01/16 06:21:13;;;;;;;;;;;6.10;99.90;;;;;;5046889;28;20393;-62
2023/01/16 06:23:39;;;;;;;;;;;6.10;99.90;;;;;;5048949;28;20058;-62
2023/01/16 06:26:09;;;;;;;;;;;6.10;99.90;;;;;;5050128;28;20431;-63
2023/01/16 06:28:35;;;;;;;;;;;6.10;99.90;;;;;;5034634;28;19916;-62
2023/01/16 06:31:00;;;;;;;;;;;6.10;99.90;;;;;;5047990;28;20029;-62
2023/01/16 06:33:26;;;;;;;;;;;6.10;99.90;;;;;;5038142;28;19912;-62
2023/01/16 06:35:51;;;;;;;;;;;6.10;99.90;;;;;;5048822;28;19917;-62
2023/01/16 06:38:17;;;;;;;;;;;6.10;99.90;;;;;;5047459;28;19967;-60
2023/01/16 06:40:44;;;;;;;;;;;6.10;99.90;;;;;;5043202;28;19917;-61
2023/01/16 06:43:09;;;;;;;;;;;6.10;99.90;;;;;;5041811;28;20337;-60
2023/01/16 06:45:35;;;;;;;;;;;6.10;99.90;;;;;;5043562;28;19928;-60
2023/01/16 06:48:00;;;;;;;;;;;6.10;99.90;;;;;;5043659;28;19967;-59
2023/01/16 06:50:26;;;;;;;;;;;6.10;99.90;;;;;;5050133;28;19913;-61
2023/01/16 06:52:51;;;;;;;;;;;6.10;99.90;;;;;;5048264;28;19913;-62
2023/01/16 06:55:17;;;;;;;;;;;6.10;99.90;;;;;;5047129;28;20345;-62
2023/01/16 06:57:42;;;;;;;;;;;6.10;99.90;;;;;;5041889;28;20442;-62
2023/01/16 07:00:08;;;;;;;;;;;6.10;99.90;;;;;;5044819;28;19913;-61
2023/01/16 07:02:33;;;;;;;;;;;6.20;99.90;;;;;;5043898;28;20326;-62
2023/01/16 07:04:59;;;;;;;;;;;6.20;99.90;;;;;;5043160;28;20035;-62
2023/01/16 07:07:24;;;;;;;;;;;6.20;99.90;;;;;;5046089;28;19932;-61
2023/01/16 07:09:50;;;;;;;;;;;6.20;99.90;;;;;;5046471;28;19916;-62
2023/01/16 07:12:15;;;;;;;;;;;6.20;99.90;;;;;;5047388;28;19913;-62
2023/01/16 07:22:54;;;;;;;;;;;6.30;99.90;;;;;;5047428;28;20523;-62
2023/01/16 07:25:29;;;;;;;;;;;6.30;99.90;;;;;;5041013;28;19952;-62
2023/01/16 07:27:54;;;;;;;;;;;6.30;99.90;;;;;;5047767;28;19917;-61
2023/01/16 07:30:21;;;;;;;;;;;6.30;99.90;;;;;;5045769;28;19919;-61
2023/01/16 07:32:47;;;;;;;;;;;6.30;99.90;;;;;;5044639;28;19912;-61
2023/01/16 07:35:13;;;;;;;;;;;6.30;99.90;;;;;;5049770;28;19916;-61
2023/01/16 07:37:39;;;;;;;;;;;6.30;99.90;;;;;;5043815;28;19967;-61
2023/01/16 07:40:04;;;;;;;;;;;6.30;99.90;;;;;;5047518;28;20238;-61
2023/01/16 07:42:30;;;;;;;;;;;6.40;99.90;;;;;;5048198;28;20012;-62
2023/01/16 07:44:55;;;;;;;;;;;6.40;99.90;;;;;;5048925;28;19913;-61
2023/01/16 07:47:21;;;;;;;;;;;6.40;99.90;;;;;;5046611;28;19952;-61
2023/01/16 07:49:46;;;;;;;;;;;6.40;99.90;;;;;;5046970;28;19919;-62
2023/01/16 07:52:12;;;;;;;;;;;6.30;99.90;;;;;;5047273;28;19962;-61
2023/01/16 07:54:40;;;;;;;;;;;6.30;99.90;;;;;;5042753;28;19921;-62
2023/01/16 07:57:05;;;;;;;;;;;6.20;99.90;;;;;;5046736;28;20374;-62
2023/01/16 07:59:31;;;;;;;;;;;6.20;99.90;;;;;;5042713;28;19912;-62
2023/01/16 08:01:56;;;;;;;;;;;6.20;99.90;;;;;;5043938;28;20402;-62
2023/01/16 08:04:22;;;;;;;;;;;6.10;99.90;;;;;;5043851;28;19935;-62
2023/01/16 08:06:47;;;;;;;;;;;6.20;99.90;;;;;;5043372;28;19964;-61
2023/01/16 08:09:13;;;;;;;;;;;6.20;99.90;;;;;;5044398;28;19913;-61
2023/01/16 08:11:38;;;;;;;;;;;6.20;99.90;;;;;;5044701;28;19996;-61
2023/01/16 08:14:04;;;;;;;;;;;6.20;99.90;;;;;;5041928;28;19959;-61
2023/01/16 08:16:30;;;;;;;;;;;6.10;99.90;;;;;;5046612;28;19913;-61
2023/01/16 08:18:55;;;;;;;;;;;6.20;99.90;;;;;;5044395;28;19917;-61
2023/01/16 08:21:21;;;;;;;;;;;6.20;99.90;;;;;;5046426;28;20422;-61
2023/01/16 08:23:46;;;;;;;;;;;6.20;99.90;;;;;;5045391;28;19920;-61
2023/01/16 08:26:12;;;;;;;;;;;6.20;99.90;;;;;;5046420;28;20007;-61
2023/01/16 08:28:38;;;;;;;;;;;6.20;99.90;;;;;;5044845;28;19919;-61
2023/01/16 08:31:08;;;;;;;;;;;6.20;99.90;;;;;;5045847;28;19917;-61
2023/01/16 08:33:37;;;;;;;;;;;6.20;99.90;;;;;;5042484;28;19921;-61
2023/01/16 08:36:03;;;;;;;;;;;6.20;99.90;;;;;;5048674;28;19913;-61
2023/01/16 08:38:28;;;;;;;;;;;6.30;99.90;;;;;;5047789;28;19909;-62
2023/01/16 08:40:54;;;;;;;;;;;6.30;99.90;;;;;;5043992;28;19947;-59
2023/01/16 08:51:32;;;;;;;;;;;6.30;99.90;;;;;;5041163;28;19920;-60
2023/01/16 08:53:58;;;;;;;;;;;6.20;99.90;;;;;;5044858;28;19913;-62
2023/01/16 08:56:23;;;;;;;;;;;6.20;99.90;;;;;;5042574;28;19913;-61
2023/01/16 08:58:49;;;;;;;;;;;6.20;99.90;;;;;;5047800;28;19968;-63
2023/01/16 09:01:15;;;;;;;;;;;6.20;99.90;;;;;;5046827;28;19913;-60
2023/01/16 09:03:40;;;;;;;;;;;6.10;99.90;;;;;;5047745;28;19990;-62
2023/01/16 09:06:06;;;;;;;;;;;6.20;99.90;;;;;;5050510;28;19917;-61
2023/01/16 09:08:31;;;;;;;;;;;6.20;99.90;;;;;;5050633;28;19936;-62
2023/01/16 09:13:50;;;;;;;;;;;6.10;99.90;;;;;;5051104;28;19987;-62
2023/01/16 09:16:19;;;;;;;;;;;6.20;99.90;;;;;;5048082;28;19913;-63
2023/01/16 09:18:45;;;;;;;;;;;6.10;99.90;;;;;;5051399;28;19913;-62
2023/01/16 09:21:10;;;;;;;;;;;6.10;99.90;;;;;;5052323;28;19916;-62
2023/01/16 09:23:36;;;;;;;;;;;6.10;99.90;;;;;;5049139;28;20118;-62
2023/01/16 09:26:01;;;;;;;;;;;6.10;99.90;;;;;;5050534;28;20265;-62
2023/01/16 09:28:27;;;;;;;;;;;6.10;99.90;;;;;;5049230;28;19921;-62
2023/01/16 09:30:52;;;;;;;;;;;6.20;99.90;;;;;;5047663;28;19913;-61
2023/01/16 09:33:18;;;;;;;;;;;6.10;99.90;;;;;;5046989;28;19963;-62
2023/01/16 09:35:43;;;;;;;;;;;6.10;99.90;;;;;;5083577;22;20316;-63
2023/01/16 09:38:09;;;;;;;;;;;6.10;99.90;;;;;;5064038;28;19916;-63
2023/01/16 09:40:34;;;;;;;;;;;6.10;99.90;;;;;;5069516;28;20385;-62
2023/01/16 09:43:40;;;;;;;;;;;6.10;99.90;;;;;;5070084;28;19924;-63
2023/01/16 09:46:15;;;;;;;;;;;6.20;99.90;;;;;;5058291;28;19913;-62
2023/01/16 09:48:59;;;;;;;;;;;6.10;99.90;;;;;;5051567;28;19912;-64
2023/01/16 09:51:28;;;;;;;;;;;6.10;99.90;;;;;;5051862;28;20377;-63
2023/01/16 09:59:29;;;;;;;;;;;6.20;99.90;;;;;;5050175;28;20425;-62
2023/01/16 10:02:15;;;;;;;;;;;6.10;99.90;;;;;;5047165;28;19916;-63
2023/01/16 10:04:41;;;;;;;;;;;6.20;99.90;;;;;;5033462;28;19935;-63
2023/01/16 10:07:42;;;;;;;;;;;6.20;99.90;;;;;;5049500;28;19913;-63
2023/01/16 10:10:20;;;;;;;;;;;6.20;99.90;;;;;;4966084;28;19914;-62
2023/01/16 10:12:52;;;;;;;;;;;6.30;99.90;;;;;;5040268;28;19920;-63
2023/01/16 10:15:44;;;;;;;;;;;6.30;99.90;;;;;;5050957;28;19952;-62
2023/01/16 10:18:10;;;;;;;;;;;6.30;99.90;;;;;;5050083;28;19943;-62
2023/01/16 10:20:46;;;;;;;;;;;6.30;99.90;;;;;;5052715;28;19913;-63
2023/01/16 10:23:20;;;;;;;;;;;6.30;99.90;;;;;;5054703;28;20365;-63
2023/01/16 10:25:57;;;;;;;;;;;6.30;99.90;;;;;;5054541;28;19910;-62
2023/01/16 10:28:30;;;;;;;;;;;6.20;99.90;;;;;;5049523;28;19917;-62
2023/01/16 10:31:01;;;;;;;;;;;6.20;99.90;;;;;;5048672;28;19909;-62
2023/01/16 10:33:30;;;;;;;;;;;6.20;99.90;;;;;;5047935;28;19913;-62
2023/01/16 10:35:57;;;;;;;;;;;6.20;99.90;;;;;;5053003;28;19917;-63
2023/01/16 10:38:43;;;;;;;;;;;6.20;99.90;;;;;;5049348;28;19912;-61
2023/01/16 10:49:45;;;;;;;;;;;6.30;99.90;;;;;;5046054;28;19955;-62
2023/01/16 10:52:11;;;;;;;;;;;6.30;99.90;;;;;;5041245;28;19959;-62
2023/01/16 10:54:37;;;;;;;;;;;6.40;99.90;;;;;;5042670;28;19913;-62
2023/01/16 10:57:08;;;;;;;;;;;6.40;99.90;;;;;;5046546;28;19974;-62
2023/01/16 10:59:34;;;;;;;;;;;6.40;99.90;;;;;;5046815;28;19938;-61
2023/01/16 11:02:03;;;;;;;;;;;6.50;99.90;;;;;;5046155;28;20387;-62
2023/01/16 11:04:35;;;;;;;;;;;6.50;99.90;;;;;;5049413;28;19940;-61
2023/01/16 11:07:14;;;;;;;;;;;6.40;99.90;;;;;;5045949;28;20020;-62
2023/01/16 11:09:42;;;;;;;;;;;6.50;99.90;;;;;;5048032;28;20309;-62
2023/01/16 11:20:29;;;;;;;;;;;6.70;99.90;;;;;;5047040;28;19923;-63
2023/01/16 11:22:59;;;;;;;;;;;6.70;99.90;;;;;;5045005;28;19924;-63
2023/01/16 11:25:28;;;;;;;;;;;6.80;99.90;;;;;;5044909;28;19913;-62
2023/01/16 11:27:55;;;;;;;;;;;6.90;99.90;;;;;;5046099;28;19968;-62
2023/01/16 11:30:28;;;;;;;;;;;6.90;99.90;;;;;;5049475;28;19940;-61
2023/01/16 11:32:56;;;;;;;;;;;6.90;99.90;;;;;;5049187;28;19923;-63
2023/01/16 11:35:25;;;;;;;;;;;6.80;99.90;;;;;;5047453;28;19927;-63
2023/01/16 11:37:52;;;;;;;;;;;7.00;99.90;;;;;;5049863;28;19908;-63
2023/01/16 11:40:22;;;;;;;;;;;6.90;99.90;;;;;;5049956;28;19916;-66
2023/01/16 11:48:24;;;;;;;;;;;7.10;99.90;;;;;;5042557;28;19923;-63
2023/01/16 11:50:54;;;;;;;;;;;7.00;99.90;;;;;;5049529;28;20326;-63
2023/01/16 11:53:20;;;;;;;;;;;6.80;99.90;;;;;;5043337;28;19913;-63
2023/01/16 11:56:10;;;;;;;;;;;6.80;99.90;;;;;;5041312;28;19921;-63
2023/01/16 11:58:54;;;;;;;;;;;6.60;99.90;;;;;;5045797;28;19970;-63
2023/01/16 12:02:15;;;;;;;;;;;6.60;99.90;;;;;;5048310;28;19920;-63
2023/01/16 12:04:24;;;;;;;;;;;6.60;99.90;;;;;;5044624;28;20373;-63
2023/01/16 12:07:25;;;;;;;;;;;6.50;99.90;;;;;;5050619;28;19966;-63
2023/01/16 12:09:54;;;;;;;;;;;6.50;99.90;;;;;;5008037;28;19968;-63
2023/01/16 12:15:30;;;;;;;;;;;6.50;99.90;;;;;;5047651;28;19963;-63
2023/01/16 12:18:05;;;;;;;;;;;6.50;99.90;;;;;;5049862;28;19944;-61
2023/01/16 12:20:51;;;;;;;;;;;6.40;99.90;;;;;;5049786;28;19963;-63
2023/01/16 12:23:32;;;;;;;;;;;6.20;99.90;;;;;;5045785;28;19913;-63
2023/01/16 12:26:07;;;;;;;;;;;6.20;99.90;;;;;;5045446;28;19909;-62
2023/01/16 12:28:32;;;;;;;;;;;6.20;99.90;;;;;;5049315;28;20011;-61
2023/01/16 12:34:15;;;;;;;;;;;6.20;99.90;;;;;;5049383;28;19913;-61
2023/01/16 12:36:50;;;;;;;;;;;6.30;99.90;;;;;;5051835;28;19920;-60
2023/01/16 12:39:25;;;;;;;;;;;6.30;99.90;;;;;;5050293;28;19909;-63
2023/01/16 12:45:00;;;;;;;;;;;6.40;99.90;;;;;;5052675;28;19967;-62
2023/01/16 12:47:28;;;;;;;;;;;6.40;99.90;;;;;;5054325;28;19916;-61
2023/01/16 12:50:00;;;;;;;;;;;6.40;99.90;;;;;;5052023;28;19931;-64
2023/01/16 12:52:43;;;;;;;;;;;6.40;99.90;;;;;;5053806;28;19913;-62
2023/01/16 12:55:12;;;;;;;;;;;6.40;99.90;;;;;;5053564;28;20394;-62
2023/01/16 12:57:55;;;;;;;;;;;6.50;99.90;;;;;;5053688;28;20002;-62
2023/01/16 13:00:23;;;;;;;;;;;6.50;99.90;;;;;;5053286;28;20002;-62
2023/01/16 13:03:01;;;;;;;;;;;6.40;99.90;;;;;;5049398;28;20087;-61
2023/01/16 13:05:32;;;;;;;;;;;6.50;99.90;;;;;;5049550;28;19919;-61
2023/01/16 13:08:08;;;;;;;;;;;6.50;99.90;;;;;;5055608;28;20062;-61
2023/01/16 13:13:25;;;;;;;;;;;6.50;99.90;;;;;;5054208;28;19932;-61
2023/01/16 13:15:58;;;;;;;;;;;6.60;99.90;;;;;;5052189;28;19908;-61
2023/01/16 13:18:30;;;;;;;;;;;6.60;99.90;;;;;;5053085;28;19987;-61
2023/01/16 13:20:57;;;;;;;;;;;6.60;99.90;;;;;;5053633;28;19947;-61
2023/01/16 13:23:40;;;;;;;;;;;6.70;99.90;;;;;;5051948;28;19913;-60
2023/01/16 13:26:08;;;;;;;;;;;6.70;99.90;;;;;;5047245;28;19932;-60
2023/01/16 13:28:45;;;;;;;;;;;6.70;99.90;;;;;;5052763;28;20389;-61
2023/01/16 13:31:20;;;;;;;;;;;6.80;99.90;;;;;;5051566;28;19916;-59
2023/01/16 13:33:46;;;;;;;;;;;6.80;99.90;;;;;;5052035;28;19913;-61
2023/01/16 13:36:14;;;;;;;;;;;6.80;99.90;;;;;;5052498;28;19967;-61
2023/01/16 13:39:07;;;;;;;;;;;6.70;99.90;;;;;;5053013;28;19913;-62
2023/01/16 13:41:39;;;;;;;;;;;6.70;99.90;;;;;;5053037;28;19930;-60
2023/01/16 13:47:12;;;;;;;;;;;6.70;99.90;;;;;;5048472;28;19970;-61
2023/01/16 13:49:38;;;;;;;;;;;6.70;99.90;;;;;;5051439;28;19959;-61
2023/01/16 13:52:04;;;;;;;;;;;6.60;99.90;;;;;;5049610;28;20067;-61
2023/01/16 13:54:29;;;;;;;;;;;6.60;99.90;;;;;;5045157;28;20016;-61
2023/01/16 13:56:55;;;;;;;;;;;6.60;99.90;;;;;;5051928;28;19912;-60
2023/01/16 13:59:29;;;;;;;;;;;6.60;99.90;;;;;;5049856;28;19913;-61
2023/01/16 14:01:58;;;;;;;;;;;6.50;99.90;;;;;;5049063;28;19936;-61
2023/01/16 14:04:23;;;;;;;;;;;6.60;99.90;;;;;;5051760;28;19943;-61
2023/01/16 14:06:50;;;;;;;;;;;6.50;99.90;;;;;;5048484;28;19917;-60
2023/01/16 14:09:20;;;;;;;;;;;6.50;99.90;;;;;;5043868;28;20280;-60
2023/01/16 14:12:17;;;;;;;;;;;6.50;99.90;;;;;;5049187;28;19916;-61
2023/01/16 14:17:30;;;;;;;;;;;6.40;99.90;;;;;;5044601;28;19919;-61
2023/01/16 14:19:55;;;;;;;;;;;6.40;99.90;;;;;;5046800;28;19943;-61
2023/01/16 14:24:56;;;;;;;;;;;6.50;99.90;;;;;;5043291;28;20324;-61
2023/01/16 14:27:30;;;;;;;;;;;6.50;99.90;;;;;;5038647;28;20335;-63
2023/01/16 14:29:56;;;;;;;;;;;6.50;99.90;;;;;;5041581;28;20353;-62
2023/01/16 14:32:26;;;;;;;;;;;6.50;99.90;;;;;;5039620;28;19917;-60
2023/01/16 14:34:57;;;;;;;;;;;6.50;99.90;;;;;;5046608;28;20468;-62
2023/01/16 14:37:25;;;;;;;;;;;6.60;99.90;;;;;;5048358;28;19958;-62
2023/01/16 14:39:54;;;;;;;;;;;6.60;99.90;;;;;;5048349;28;19996;-62
2023/01/16 14:56:19;;;;;;;;;;;6.60;99.90;;;;;;5043656;28;19924;-60
2023/01/16 14:58:58;;;;;;;;;;;6.60;99.90;;;;;;5048132;28;19927;-61
2023/01/16 15:04:13;;;;;;;;;;;6.60;99.90;;;;;;5044644;28;19932;-59
2023/01/16 15:06:41;;;;;;;;;;;6.60;99.90;;;;;;5045607;28;19970;-60
2023/01/16 15:09:15;;;;;;;;;;;6.60;99.90;;;;;;5042708;28;19919;-62
2023/01/16 15:12:03;;;;;;;;;;;6.60;99.90;;;;;;5036529;28;19920;-62
2023/01/16 15:14:29;;;;;;;;;;;6.60;99.90;;;;;;5036995;28;20390;-58
2023/01/16 15:22:39;;;;;;;;;;;6.50;99.90;;;;;;5027270;28;19998;-61
2023/01/16 15:25:14;;;;;;;;;;;6.60;99.90;;;;;;5040843;28;20318;-62
2023/01/16 15:27:41;;;;;;;;;;;6.60;99.90;;;;;;5041935;28;20575;-61
2023/01/16 15:30:17;;;;;;;;;;;6.60;99.90;;;;;;5044056;28;19908;-62
2023/01/16 15:32:52;;;;;;;;;;;6.60;99.90;;;;;;5042474;28;19916;-63
2023/01/16 15:35:22;;;;;;;;;;;6.60;99.90;;;;;;5045479;28;19920;-60
2023/01/16 15:37:49;;;;;;;;;;;6.60;99.90;;;;;;5070365;23;19921;-57
2023/01/16 15:40:22;;;;;;;;;;;6.60;99.90;;;;;;5050351;28;19945;-59
2023/01/16 15:48:16;;;;;;;;;;;6.60;99.90;;;;;;5045185;28;19920;-59
2023/01/16 15:50:41;;;;;;;;;;;6.60;99.90;;;;;;5047695;28;19909;-57
2023/01/16 15:53:07;;;;;;;;;;;6.60;99.90;;;;;;5049148;28;19988;-58
2023/01/16 15:55:37;;;;;;;;;;;6.50;99.90;;;;;;5046872;28;19952;-58
2023/01/16 15:58:03;;;;;;;;;;;6.50;99.90;;;;;;5046604;28;20294;-62
2023/01/16 16:00:37;;;;;;;;;;;6.50;99.90;;;;;;5047264;28;20007;-53
2023/01/16 16:03:21;;;;;;;;;;;6.60;99.90;;;;;;5042571;28;19925;-59
2023/01/16 16:05:51;;;;;;;;;;;6.50;99.90;;;;;;5043933;28;19916;-60
2023/01/16 16:08:21;;;;;;;;;;;6.60;99.90;;;;;;5044674;28;19920;-58
2023/01/16 16:13:31;;;;;;;;;;;6.50;99.90;;;;;;5045824;28;19920;-60
2023/01/16 16:18:59;;;;;;;;;;;6.40;99.90;;;;;;5034427;28;19982;-60
2023/01/16 16:21:27;;;;;;;;;;;6.40;99.90;;;;;;5046781;28;19954;-58
2023/01/16 16:23:53;;;;;;;;;;;6.30;99.90;;;;;;5047007;28;19968;-58
2023/01/16 16:26:20;;;;;;;;;;;6.30;99.90;;;;;;5046647;28;19920;-59
2023/01/16 16:28:46;;;;;;;;;;;6.30;99.90;;;;;;5046894;28;19921;-58
2023/01/16 16:31:14;;;;;;;;;;;6.20;99.90;;;;;;5035462;28;19963;-59